N172SB KBFL-KVIS
Flight info
| Callsign | N172SB |
|---|---|
| Flight time | N/A |
| Altitude | 4000 |
| Route | BRETT |
| Aircraft | C172/L-SFG/C |
Departure
| Time | 2026-04-22 01:34 |
|---|---|
| Airport | Meadows Field (KBFL) |
Arrival
| Time | N/A |
|---|---|
| Airport | Visalia Municipal Airport (KVIS) |
| Time | Latitude | Longitude | Altitude | Speed | Heading |
|---|---|---|---|---|---|
| 2026-04-22 01:16 | 35.42611 | -119.04080 | 474 ft | 0 kts | 92° |
| 2026-04-22 01:28 | 35.42610 | -119.04076 | 474 ft | 4 kts | 91° |
| 2026-04-22 01:28 | 35.42582 | -119.04096 | 473 ft | 15 kts | 249° |
| 2026-04-22 01:29 | 35.42566 | -119.04271 | 471 ft | 18 kts | 271° |
| 2026-04-22 01:29 | 35.42566 | -119.04306 | 470 ft | 5 kts | 271° |
| 2026-04-22 01:29 | 35.42568 | -119.04394 | 469 ft | 3 kts | 275° |
| 2026-04-22 01:29 | 35.42590 | -119.04438 | 468 ft | 5 kts | 301° |
| 2026-04-22 01:30 | 35.42572 | -119.04479 | 468 ft | 0 kts | 227° |
| 2026-04-22 01:31 | 35.42556 | -119.04505 | 469 ft | 10 kts | 238° |
| 2026-04-22 01:32 | 35.42556 | -119.04593 | 471 ft | 13 kts | 285° |
| 2026-04-22 01:32 | 35.42633 | -119.04714 | 476 ft | 32 kts | 314° |
| 2026-04-22 01:32 | 35.42908 | -119.05048 | 478 ft | 75 kts | 315° |
| 2026-04-22 01:32 | 35.43312 | -119.05529 | 559 ft | 81 kts | 315° |
| 2026-04-22 01:33 | 35.43701 | -119.06029 | 724 ft | 70 kts | 314° |
| 2026-04-22 01:33 | 35.44033 | -119.06483 | 830 ft | 78 kts | 309° |
| 2026-04-22 01:33 | 35.44406 | -119.06997 | 935 ft | 78 kts | 314° |
| 2026-04-22 01:33 | 35.44788 | -119.07439 | 1100 ft | 75 kts | 316° |
| 2026-04-22 01:34 | 35.45205 | -119.07829 | 1200 ft | 79 kts | 325° |
| 2026-04-22 01:34 | 35.45569 | -119.08332 | 1318 ft | 74 kts | 317° |
| 2026-04-22 01:34 | 35.45884 | -119.08892 | 1387 ft | 76 kts | 303° |
| 2026-04-22 01:34 | 35.46285 | -119.09264 | 1474 ft | 78 kts | 310° |
| 2026-04-22 01:35 | 35.46757 | -119.09737 | 1427 ft | 92 kts | 313° |
| 2026-04-22 01:35 | 35.47246 | -119.10112 | 1484 ft | 87 kts | 24° |
| 2026-04-22 01:35 | 35.47413 | -119.10546 | 1428 ft | 74 kts | 316° |
| 2026-04-22 01:35 | 35.47919 | -119.10790 | 1503 ft | 81 kts | 343° |
| 2026-04-22 01:36 | 35.48453 | -119.10909 | 1596 ft | 83 kts | 14° |
| 2026-04-22 01:36 | 35.49025 | -119.10776 | 1667 ft | 83 kts | 4° |
| 2026-04-22 01:36 | 35.49155 | -119.10754 | 1803 ft | 71 kts | 7° |